createdAt,value
2017-09-12T00:01:28.330Z,2.60
2017-09-12T00:03:55.167Z,2.20
2017-09-12T00:06:22.021Z,2.67
2017-09-12T00:08:48.831Z,2.30
2017-09-12T00:11:16.434Z,1.93
2017-09-12T00:13:43.277Z,2.73
2017-09-12T00:16:10.866Z,2.40
2017-09-12T00:18:37.709Z,2.43
2017-09-12T00:21:05.304Z,2.50
2017-09-12T00:23:32.181Z,2.00
2017-09-12T00:25:59.000Z,2.23
2017-09-12T00:28:25.862Z,2.00
2017-09-12T00:30:53.439Z,2.20
2017-09-12T00:33:20.302Z,2.30
2017-09-12T00:35:47.913Z,2.10
2017-09-12T00:38:14.759Z,2.33
2017-09-12T00:40:42.334Z,2.23
2017-09-12T00:43:09.905Z,2.50
2017-09-12T00:45:37.511Z,2.40
2017-09-12T00:48:04.335Z,2.30
2017-09-12T00:50:31.169Z,2.07
2017-09-12T00:52:58.040Z,1.93
2017-09-12T00:55:24.959Z,1.80
2017-09-12T00:57:51.888Z,2.00
2017-09-12T01:00:19.527Z,2.20
2017-09-12T01:02:46.411Z,2.80
2017-09-12T01:05:13.289Z,2.33
2017-09-12T01:07:40.938Z,2.33
2017-09-12T01:10:07.804Z,2.10
2017-09-12T01:12:34.668Z,1.90
2017-09-12T01:15:01.547Z,2.40
2017-09-12T01:17:28.414Z,2.03
2017-09-12T01:19:56.049Z,2.43
2017-09-12T01:22:22.968Z,1.53
2017-09-12T01:24:50.631Z,2.73
2017-09-12T01:27:17.562Z,2.40
2017-09-12T01:29:44.485Z,2.20
2017-09-12T01:32:11.364Z,2.43
2017-09-12T01:34:38.254Z,2.67
2017-09-12T01:37:05.113Z,2.00
2017-09-12T01:39:31.992Z,2.73
2017-09-12T01:41:58.879Z,2.17
2017-09-12T01:44:26.526Z,2.47
2017-09-12T01:46:53.447Z,2.17
2017-09-12T01:49:20.294Z,2.67
2017-09-12T01:51:47.131Z,2.43
2017-09-12T01:54:13.956Z,2.30
2017-09-12T01:56:40.807Z,2.50
2017-09-12T01:59:07.642Z,2.40
2017-09-12T02:01:34.480Z,2.40
2017-09-12T02:04:02.089Z,2.03
2017-09-12T02:06:28.917Z,1.90
2017-09-12T02:08:55.748Z,2.27
2017-09-12T02:11:22.586Z,2.37
2017-09-12T02:13:49.442Z,2.10
2017-09-12T02:16:16.294Z,2.50
2017-09-12T02:18:43.151Z,2.80
2017-09-12T02:21:10.036Z,2.07
2017-09-12T02:23:36.862Z,2.80
2017-09-12T02:26:03.696Z,2.80
2017-09-12T02:28:30.549Z,2.33
2017-09-12T02:30:57.373Z,2.83
2017-09-12T02:33:24.205Z,3.13
2017-09-12T02:35:51.764Z,2.13
2017-09-12T02:38:18.647Z,2.73
2017-09-12T02:40:46.228Z,3.67
2017-09-12T02:43:13.062Z,2.60
2017-09-12T02:45:39.912Z,2.87
2017-09-12T02:48:06.782Z,2.97
2017-09-12T02:50:33.611Z,2.30
2017-09-12T02:53:00.456Z,2.83
2017-09-12T02:55:27.299Z,3.27
2017-09-12T02:57:54.198Z,3.43
2017-09-12T03:00:21.096Z,3.87
2017-09-12T03:02:47.966Z,2.70
2017-09-12T03:05:16.451Z,3.17
2017-09-12T03:07:44.016Z,2.80
2017-09-12T03:10:10.871Z,2.53
2017-09-12T03:12:37.711Z,2.60
2017-09-12T03:15:04.545Z,2.53
2017-09-12T03:17:31.350Z,2.40
2017-09-12T03:19:58.167Z,3.13
2017-09-12T03:22:24.997Z,2.43
2017-09-12T03:24:51.842Z,2.97
2017-09-12T03:27:18.697Z,3.07
2017-09-12T03:29:45.536Z,3.30
2017-09-12T03:32:12.396Z,4.30
2017-09-12T03:34:39.233Z,4.07
2017-09-12T03:37:06.084Z,3.60
2017-09-12T03:39:32.920Z,4.33
2017-09-12T03:41:59.760Z,4.03
2017-09-12T03:44:26.583Z,3.83
2017-09-12T03:46:53.464Z,3.43
2017-09-12T03:49:20.326Z,3.43
2017-09-12T03:51:47.145Z,3.57
2017-09-12T03:54:14.837Z,4.00
2017-09-12T03:56:41.738Z,3.30
2017-09-12T03:59:08.608Z,3.70
2017-09-12T04:01:35.532Z,3.70
2017-09-12T04:04:03.159Z,3.90
2017-09-12T04:06:30.035Z,3.40
2017-09-12T04:08:56.926Z,2.57
2017-09-12T04:11:23.800Z,2.93
2017-09-12T04:13:50.661Z,3.80
2017-09-12T04:16:17.654Z,3.43
2017-09-12T04:18:44.691Z,3.93
2017-09-12T04:21:11.618Z,3.97
2017-09-12T04:23:38.516Z,4.17
2017-09-12T04:26:05.404Z,3.70
2017-09-12T04:28:32.334Z,3.93
2017-09-12T04:30:59.266Z,4.10
2017-09-12T04:33:26.183Z,4.03
2017-09-12T04:35:53.067Z,4.70
2017-09-12T04:38:19.939Z,4.63
2017-09-12T04:40:46.840Z,4.83
2017-09-12T04:43:13.726Z,5.40
2017-09-12T04:45:40.615Z,4.33
2017-09-12T04:48:07.515Z,5.63
2017-09-12T04:50:35.149Z,4.50
2017-09-12T04:53:01.998Z,5.83
2017-09-12T04:55:28.861Z,5.70
2017-09-12T04:57:55.689Z,5.10
2017-09-12T05:00:22.564Z,4.93
2017-09-12T05:02:49.419Z,5.33
2017-09-12T05:05:16.255Z,5.00
2017-09-12T05:07:43.851Z,5.10
2017-09-12T05:10:10.732Z,5.90
2017-09-12T05:12:37.638Z,6.23
2017-09-12T05:15:04.511Z,5.30
2017-09-12T05:17:31.367Z,6.20
2017-09-12T05:19:58.269Z,6.17
2017-09-12T05:22:25.175Z,5.90
2017-09-12T05:24:52.116Z,5.83
2017-09-12T05:27:18.969Z,6.30
2017-09-12T05:29:45.811Z,6.30
2017-09-12T05:32:12.644Z,6.67
2017-09-12T05:34:39.456Z,6.67
2017-09-12T05:37:06.285Z,6.50
2017-09-12T05:39:33.850Z,6.33
2017-09-12T05:42:01.417Z,5.80
2017-09-12T05:44:28.247Z,5.20
2017-09-12T05:46:55.077Z,4.93
2017-09-12T05:49:21.935Z,5.43
2017-09-12T05:51:48.787Z,4.20
2017-09-12T05:54:15.633Z,4.57
2017-09-12T05:56:43.269Z,4.77
2017-09-12T05:59:10.127Z,5.13
2017-09-12T06:01:36.961Z,5.10
2017-09-12T06:04:03.803Z,5.87
2017-09-12T06:06:31.355Z,5.97
2017-09-12T06:08:58.253Z,4.70
2017-09-12T06:11:25.113Z,5.53
2017-09-12T06:13:51.923Z,5.77
2017-09-12T06:16:18.800Z,6.63
2017-09-12T06:18:45.654Z,6.73
2017-09-12T06:21:12.534Z,7.23
2017-09-12T06:23:39.397Z,8.07
2017-09-12T06:26:06.229Z,8.80
2017-09-12T06:28:33.083Z,8.37
2017-09-12T06:30:59.899Z,8.97
2017-09-12T06:33:27.479Z,9.77
2017-09-12T06:35:55.040Z,7.90
2017-09-12T06:38:22.600Z,10.30
2017-09-12T06:40:49.446Z,9.20
2017-09-12T06:43:16.292Z,9.20
2017-09-12T06:45:43.114Z,9.43
2017-09-12T06:48:10.734Z,9.33
2017-09-12T06:50:37.567Z,9.40
2017-09-12T06:53:04.404Z,8.90
2017-09-12T06:55:31.963Z,9.73
2017-09-12T06:57:58.811Z,8.60
2017-09-12T07:00:25.706Z,9.47
2017-09-12T07:02:53.302Z,9.50
2017-09-12T07:05:20.132Z,8.10
2017-09-12T07:07:46.951Z,8.50
2017-09-12T07:10:13.805Z,8.23
2017-09-12T07:12:40.633Z,8.37
2017-09-12T07:15:08.233Z,8.20
2017-09-12T07:17:35.064Z,7.70
2017-09-12T07:20:02.723Z,7.33
2017-09-12T07:22:29.540Z,8.63
2017-09-12T07:24:57.119Z,7.17
2017-09-12T07:27:23.933Z,7.73
2017-09-12T07:29:50.745Z,7.80
2017-09-12T07:32:17.602Z,7.67
2017-09-12T07:34:44.446Z,7.20
2017-09-12T07:37:11.243Z,6.90
2017-09-12T07:39:38.069Z,7.03
2017-09-12T07:42:04.894Z,6.63
2017-09-12T07:44:31.770Z,6.30
2017-09-12T07:46:59.321Z,6.23
2017-09-12T07:49:26.171Z,6.30
2017-09-12T07:51:53.009Z,4.97
2017-09-12T07:54:19.866Z,5.57
2017-09-12T07:56:46.690Z,5.47
2017-09-12T07:59:14.265Z,5.10
2017-09-12T08:01:41.828Z,5.23
2017-09-12T08:04:08.714Z,4.60
2017-09-12T08:06:36.273Z,4.80
2017-09-12T08:09:03.323Z,4.60
2017-09-12T08:11:30.182Z,4.20
2017-09-12T08:13:57.090Z,4.10
2017-09-12T08:16:23.933Z,5.27
2017-09-12T08:18:51.554Z,4.90
2017-09-12T08:21:18.397Z,5.40
2017-09-12T08:23:45.293Z,4.67
2017-09-12T08:26:12.138Z,4.90
2017-09-12T08:28:38.984Z,4.33
2017-09-12T08:31:05.866Z,4.47
2017-09-12T08:33:32.676Z,4.90
2017-09-12T08:36:00.291Z,4.43
2017-09-12T08:38:27.108Z,4.10
2017-09-12T08:40:53.932Z,4.87
2017-09-12T08:43:20.779Z,4.80
2017-09-12T08:45:47.639Z,4.97
2017-09-12T08:48:14.551Z,4.80
2017-09-12T08:50:41.400Z,4.70
2017-09-12T08:53:08.254Z,5.07
2017-09-12T08:55:35.087Z,3.70
2017-09-12T08:58:01.934Z,5.07
2017-09-12T09:00:28.770Z,4.17
2017-09-12T09:02:56.328Z,5.27
2017-09-12T09:05:23.921Z,4.50
2017-09-12T09:07:50.720Z,4.43
2017-09-12T09:10:17.601Z,4.10
2017-09-12T09:12:44.439Z,4.13
2017-09-12T09:15:11.275Z,4.30
2017-09-12T09:17:38.834Z,4.03
2017-09-12T09:20:05.985Z,4.20
2017-09-12T09:22:32.847Z,3.67
2017-09-12T09:24:59.662Z,3.67
2017-09-12T09:27:26.463Z,2.90
2017-09-12T09:29:53.278Z,3.30
2017-09-12T09:32:20.099Z,4.00
2017-09-12T09:34:46.965Z,4.70
2017-09-12T09:37:13.879Z,4.10
2017-09-12T09:39:40.728Z,4.43
2017-09-12T09:42:07.655Z,4.53
2017-09-12T09:44:34.502Z,6.50
2017-09-12T09:47:01.363Z,4.60
2017-09-12T09:49:28.219Z,3.83
2017-09-12T09:51:55.074Z,3.60
2017-09-12T09:54:21.972Z,4.03
2017-09-12T09:56:49.543Z,4.53
2017-09-12T09:59:16.376Z,3.90
2017-09-12T10:01:43.947Z,3.63
2017-09-12T10:04:10.805Z,3.90
2017-09-12T10:06:37.690Z,4.00
2017-09-12T10:09:04.535Z,4.13
2017-09-12T10:11:31.352Z,4.17
2017-09-12T10:13:58.171Z,3.60
2017-09-12T10:16:25.023Z,3.50
2017-09-12T10:18:51.867Z,3.50
2017-09-12T10:21:18.688Z,3.90
2017-09-12T10:23:46.288Z,3.07
2017-09-12T10:26:13.120Z,3.00
2017-09-12T10:28:40.746Z,2.70
2017-09-12T10:31:07.594Z,3.07
2017-09-12T10:33:34.445Z,2.97
2017-09-12T10:36:01.327Z,2.83
2017-09-12T10:38:28.166Z,3.00
2017-09-12T10:40:55.000Z,2.80
2017-09-12T10:43:22.612Z,3.00
2017-09-12T10:45:49.464Z,2.97
2017-09-12T10:48:16.310Z,3.00
2017-09-12T10:50:43.885Z,3.97
2017-09-12T10:53:11.451Z,3.40
2017-09-12T10:55:38.264Z,3.20
2017-09-12T10:58:05.089Z,3.37
2017-09-12T11:00:32.651Z,4.00
2017-09-12T11:02:59.491Z,3.50
2017-09-12T11:05:27.047Z,3.30
2017-09-12T11:07:53.882Z,3.63
2017-09-12T11:10:20.714Z,3.80
2017-09-12T11:12:48.288Z,3.57
2017-09-12T11:15:15.855Z,3.60
2017-09-12T11:17:42.780Z,3.27
2017-09-12T11:20:09.680Z,3.67
2017-09-12T11:22:36.562Z,2.77
2017-09-12T11:25:04.160Z,3.67
2017-09-12T11:27:31.050Z,3.33
2017-09-12T11:29:57.909Z,3.73
2017-09-12T11:32:24.778Z,3.50
2017-09-12T11:34:51.632Z,2.60
2017-09-12T11:37:18.474Z,1.70
2017-09-12T11:39:45.313Z,1.70
2017-09-12T11:42:12.927Z,2.20
2017-09-12T11:44:39.789Z,2.30
2017-09-12T11:47:06.702Z,3.30
2017-09-12T11:49:33.563Z,3.10
2017-09-12T11:52:01.147Z,3.43
2017-09-12T11:54:28.725Z,3.70
2017-09-12T11:56:56.317Z,3.77
2017-09-12T11:59:23.884Z,3.73
2017-09-12T12:01:51.470Z,3.73
2017-09-12T12:04:19.053Z,4.60
2017-09-12T12:06:45.931Z,3.50
2017-09-12T12:09:12.770Z,3.27
2017-09-12T12:11:40.359Z,2.90
2017-09-12T12:14:07.192Z,2.83
2017-09-12T12:16:34.781Z,2.30
2017-09-12T12:19:02.639Z,2.80
2017-09-12T12:21:29.471Z,2.60
2017-09-12T12:23:56.354Z,3.47
2017-09-12T12:26:23.269Z,2.80
2017-09-12T12:28:50.133Z,2.77
2017-09-12T12:31:16.947Z,2.90
2017-09-12T12:33:43.776Z,2.90
2017-09-12T12:36:10.612Z,3.13
2017-09-12T12:38:37.460Z,2.67
2017-09-12T12:41:04.308Z,2.60
2017-09-12T12:43:31.166Z,2.30
2017-09-12T12:45:58.010Z,2.37
2017-09-12T12:48:24.865Z,2.53
2017-09-12T12:50:51.709Z,3.10
2017-09-12T12:53:18.600Z,2.60
2017-09-12T12:55:45.452Z,3.17
2017-09-12T12:58:12.300Z,2.90
2017-09-12T13:00:39.135Z,2.57
2017-09-12T13:03:05.975Z,3.40
2017-09-12T13:05:33.563Z,2.53
2017-09-12T13:08:00.446Z,2.40
2017-09-12T13:10:27.343Z,2.50
2017-09-12T13:12:56.615Z,2.40
2017-09-12T13:15:23.484Z,2.60
2017-09-12T13:17:50.392Z,2.73
2017-09-12T13:20:17.244Z,2.67
2017-09-12T13:22:44.826Z,2.60
2017-09-12T13:25:11.645Z,2.73
2017-09-12T13:27:38.496Z,2.63
2017-09-12T13:30:05.310Z,1.97
2017-09-12T13:32:32.152Z,2.70
2017-09-12T13:34:59.978Z,2.30
2017-09-12T13:37:27.546Z,2.10
2017-09-12T13:39:55.329Z,1.40
2017-09-12T13:42:22.955Z,1.63
2017-09-12T13:44:49.900Z,1.40
2017-09-12T13:47:16.890Z,2.03
2017-09-12T13:49:43.880Z,1.63
2017-09-12T13:52:10.739Z,1.60
2017-09-12T13:54:37.870Z,2.27
2017-09-12T13:57:04.739Z,1.80
2017-09-12T13:59:32.378Z,2.00
2017-09-12T14:01:59.992Z,1.90
2017-09-12T14:04:26.840Z,1.27
2017-09-12T14:06:53.706Z,1.53
2017-09-12T14:09:20.531Z,1.73
2017-09-12T14:11:47.433Z,1.70
2017-09-12T14:14:14.317Z,1.17
2017-09-12T14:16:41.184Z,1.20
2017-09-12T14:19:08.114Z,1.10
2017-09-12T14:21:35.373Z,1.10
2017-09-12T14:24:02.259Z,1.33
2017-09-12T14:26:29.826Z,1.50
2017-09-12T14:28:56.936Z,1.00
2017-09-12T14:31:24.224Z,1.20
2017-09-12T14:33:51.407Z,1.30
2017-09-12T14:36:18.273Z,1.67
2017-09-12T14:38:45.830Z,1.60
2017-09-12T14:41:12.668Z,1.50
2017-09-12T14:43:39.502Z,1.50
2017-09-12T14:46:06.324Z,1.50
2017-09-12T14:48:33.885Z,1.33
2017-09-12T14:51:00.724Z,1.43
2017-09-12T14:53:27.578Z,1.20
2017-09-12T14:55:54.425Z,1.50
2017-09-12T14:58:21.296Z,1.60
2017-09-12T15:00:48.146Z,1.87
2017-09-12T15:03:14.966Z,1.60
2017-09-12T15:05:41.743Z,1.67
2017-09-12T15:08:08.574Z,1.63
2017-09-12T15:10:35.419Z,1.60
2017-09-12T15:13:02.252Z,2.00
2017-09-12T15:15:29.044Z,1.40
2017-09-12T15:17:55.880Z,1.70
2017-09-12T15:20:22.700Z,1.60
2017-09-12T15:22:50.305Z,2.10
2017-09-12T15:25:17.173Z,2.10
2017-09-12T15:27:44.019Z,1.97
2017-09-12T15:30:10.890Z,1.83
2017-09-12T15:32:37.733Z,2.00
2017-09-12T15:35:04.576Z,1.90
2017-09-12T15:37:32.157Z,2.10
2017-09-12T15:39:59.067Z,1.80
2017-09-12T15:42:25.935Z,2.00
2017-09-12T15:44:52.806Z,2.00
2017-09-12T15:47:19.650Z,2.17
2017-09-12T15:49:46.558Z,1.90
2017-09-12T15:52:13.438Z,1.80
2017-09-12T15:54:40.284Z,1.50
2017-09-12T15:57:07.912Z,1.40
2017-09-12T15:59:34.785Z,1.93
2017-09-12T16:02:01.630Z,1.97
2017-09-12T16:04:28.472Z,1.67
2017-09-12T16:06:55.299Z,1.80
2017-09-12T16:09:22.218Z,1.80
2017-09-12T16:11:49.093Z,2.07
2017-09-12T16:14:15.991Z,2.00
2017-09-12T16:16:42.867Z,1.90
2017-09-12T16:19:09.684Z,2.83
2017-09-12T16:21:36.543Z,2.10
2017-09-12T16:24:03.394Z,1.80
2017-09-12T16:26:30.246Z,2.57
2017-09-12T16:28:57.086Z,2.10
2017-09-12T16:31:23.934Z,2.53
2017-09-12T16:33:51.656Z,2.17
2017-09-12T16:36:18.535Z,2.20
2017-09-12T16:38:45.379Z,1.93
2017-09-12T16:41:12.242Z,1.70
2017-09-12T16:43:39.099Z,2.53
2017-09-12T16:46:05.941Z,2.07
2017-09-12T16:48:32.810Z,1.90
2017-09-12T16:50:59.690Z,3.17
2017-09-12T16:53:26.598Z,2.30
2017-09-12T16:55:54.219Z,2.40
2017-09-12T16:58:21.137Z,2.10
2017-09-12T17:00:48.031Z,2.47
2017-09-12T17:03:14.873Z,1.87
2017-09-12T17:05:41.751Z,3.23
2017-09-12T17:08:08.691Z,2.53
2017-09-12T17:10:36.590Z,2.50
2017-09-12T17:13:03.516Z,1.90
2017-09-12T17:15:30.836Z,2.40
2017-09-12T17:17:57.690Z,3.00
2017-09-12T17:20:25.048Z,2.60
2017-09-12T17:22:52.875Z,2.13
2017-09-12T17:25:19.764Z,2.70
2017-09-12T17:27:46.706Z,2.43
2017-09-12T17:30:13.623Z,2.87
2017-09-12T17:32:43.479Z,1.90
2017-09-12T17:35:10.383Z,2.23
2017-09-12T17:37:37.270Z,2.47
2017-09-12T17:40:04.900Z,2.20
2017-09-12T17:42:35.725Z,2.60
2017-09-12T17:45:02.745Z,2.37
2017-09-12T17:47:29.650Z,3.03
2017-09-12T17:49:56.616Z,2.70
2017-09-12T17:52:24.478Z,2.83
2017-09-12T17:54:51.410Z,2.50
2017-09-12T17:57:19.506Z,2.83
2017-09-12T17:59:48.151Z,2.90
2017-09-12T18:02:16.796Z,2.77
2017-09-12T18:04:44.166Z,3.60
2017-09-12T18:07:13.008Z,2.93
2017-09-12T18:09:41.678Z,3.00
2017-09-12T18:12:10.935Z,2.87
2017-09-12T18:14:39.558Z,2.80
2017-09-12T18:17:09.278Z,3.10
2017-09-12T18:19:37.796Z,2.70
2017-09-12T18:22:06.856Z,2.80
2017-09-12T18:24:34.915Z,3.50
2017-09-12T18:27:01.968Z,2.83
2017-09-12T18:29:28.867Z,2.63
2017-09-12T18:31:57.027Z,3.77
2017-09-12T18:34:24.987Z,3.47
2017-09-12T18:37:01.795Z,4.00
2017-09-12T18:55:41.612Z,2.67
2017-09-12T18:58:09.889Z,3.37
2017-09-12T19:00:37.519Z,3.40
2017-09-12T19:03:05.373Z,3.53
2017-09-12T19:05:33.014Z,3.77
2017-09-12T19:08:02.209Z,3.00
2017-09-12T19:10:30.471Z,3.60
2017-09-12T19:12:59.199Z,3.40
2017-09-12T19:15:27.968Z,3.50
2017-09-12T19:17:57.793Z,4.20
2017-09-12T19:20:27.439Z,3.17
2017-09-12T19:22:56.487Z,3.00
2017-09-12T19:25:25.280Z,3.13
2017-09-12T19:27:54.079Z,2.80
2017-09-12T19:30:22.905Z,3.00
2017-09-12T19:32:51.409Z,3.07
2017-09-12T19:35:21.239Z,2.20
2017-09-12T19:37:50.264Z,2.67
2017-09-12T19:40:19.132Z,2.67
2017-09-12T19:42:47.913Z,2.23
2017-09-12T19:45:16.401Z,3.10
2017-09-12T19:47:46.155Z,2.63
2017-09-12T19:50:15.185Z,2.37
2017-09-12T19:52:44.255Z,2.70
2017-09-12T19:55:12.724Z,2.20
2017-09-12T19:57:40.220Z,2.07
2017-09-12T20:00:08.697Z,2.20
2017-09-12T20:02:36.870Z,2.30
2017-09-12T20:05:04.595Z,2.07
2017-09-12T20:07:32.810Z,2.20
2017-09-12T20:10:01.202Z,2.10
2017-09-12T20:12:28.158Z,1.97
2017-09-12T20:14:55.669Z,2.30
2017-09-12T20:17:22.817Z,2.37
2017-09-12T20:19:49.690Z,2.57
2017-09-12T20:22:16.744Z,2.40
2017-09-12T20:24:43.739Z,2.67
2017-09-12T20:27:10.600Z,1.90
2017-09-12T20:29:37.460Z,2.50
2017-09-12T20:32:04.710Z,2.30
2017-09-12T20:34:31.570Z,2.63
2017-09-12T20:36:58.384Z,2.63
2017-09-12T20:39:25.965Z,2.97
2017-09-12T20:41:53.578Z,2.70
2017-09-12T20:44:20.423Z,2.20
2017-09-12T20:46:47.279Z,2.57
2017-09-12T20:49:14.159Z,2.47
2017-09-12T20:51:41.000Z,2.57
2017-09-12T20:54:07.962Z,1.90
2017-09-12T20:56:35.521Z,2.80
2017-09-12T20:59:02.406Z,2.30
2017-09-12T21:01:29.250Z,3.00
2017-09-12T21:03:56.813Z,2.60
2017-09-12T21:06:23.682Z,2.17
2017-09-12T21:08:51.314Z,2.60
2017-09-12T21:11:18.127Z,2.50
2017-09-12T21:13:44.950Z,2.80
2017-09-12T21:16:11.793Z,2.57
2017-09-12T21:18:38.620Z,2.50
2017-09-12T21:21:06.192Z,2.70
2017-09-12T21:23:33.744Z,1.90
2017-09-12T21:26:00.596Z,2.73
2017-09-12T21:28:27.434Z,2.30
2017-09-12T21:30:54.343Z,3.53
2017-09-12T21:33:21.156Z,3.00
2017-09-12T21:35:47.983Z,2.33
2017-09-12T21:38:15.610Z,2.20
2017-09-12T21:40:42.493Z,2.23
2017-09-12T21:43:09.401Z,2.60
2017-09-12T21:45:36.285Z,1.80
2017-09-12T21:48:03.163Z,2.20
2017-09-12T21:50:29.990Z,2.17
2017-09-12T21:52:56.871Z,2.33
2017-09-12T21:55:23.687Z,2.37
2017-09-12T21:57:51.248Z,2.97
2017-09-12T22:00:18.143Z,2.20
2017-09-12T22:02:44.967Z,2.50
2017-09-12T22:05:11.819Z,2.10
2017-09-12T22:07:38.673Z,2.33
2017-09-12T22:10:05.504Z,2.57
2017-09-12T22:12:32.367Z,1.90
2017-09-12T22:14:59.209Z,2.73
2017-09-12T22:17:26.030Z,2.10
2017-09-12T22:19:52.858Z,1.87
2017-09-12T22:22:19.675Z,1.90
2017-09-12T22:24:46.490Z,2.40
2017-09-12T22:27:13.328Z,2.00
2017-09-12T22:29:40.908Z,2.30
2017-09-12T22:32:07.751Z,2.07
2017-09-12T22:34:34.558Z,2.17
2017-09-12T22:37:01.465Z,2.07
2017-09-12T22:39:28.317Z,2.03
2017-09-12T22:41:55.856Z,2.00
2017-09-12T22:44:22.701Z,2.10
2017-09-12T22:46:49.566Z,2.10
2017-09-12T22:49:16.423Z,2.17
2017-09-12T22:51:43.253Z,2.37
2017-09-12T22:54:10.079Z,2.40
2017-09-12T22:56:36.901Z,2.10
2017-09-12T22:59:03.719Z,1.70
2017-09-12T23:01:31.295Z,1.90
2017-09-12T23:03:58.851Z,2.03
2017-09-12T23:06:25.699Z,1.77
2017-09-12T23:08:52.537Z,1.80
2017-09-12T23:11:19.371Z,1.77
2017-09-12T23:13:46.925Z,1.80
2017-09-12T23:16:13.776Z,2.20
2017-09-12T23:18:40.613Z,2.00
2017-09-12T23:21:07.568Z,1.80
2017-09-12T23:23:34.551Z,1.90
2017-09-12T23:26:03.388Z,1.83
2017-09-12T23:28:31.206Z,1.93
2017-09-12T23:30:58.130Z,1.60
2017-09-12T23:33:31.117Z,2.07
2017-09-12T23:36:01.345Z,1.93
2017-09-12T23:38:28.872Z,2.43
2017-09-12T23:41:01.792Z,2.07
2017-09-12T23:43:28.763Z,1.67
2017-09-12T23:45:55.864Z,1.70
2017-09-12T23:48:28.988Z,1.80
2017-09-12T23:51:01.782Z,2.23
2017-09-12T23:53:29.626Z,1.73
2017-09-12T23:55:56.632Z,2.60
2017-09-12T23:58:26.521Z,1.90
